Terminal Aerodrome Forecast
Issued by NWS New Orleans/Baton Rouge, LA

Home | Current Version | Previous Version | Text Only | Print | Product List | Glossary On
Versions: 1 2 3 4 5 6 7 8 9 10 11 12 13 14 15 16 17 18 19 20 21 22 23 24 25 26 27 28 29 30 31 32
704
FTUS44 KLIX 251726
TAFNEW
TAF
KNEW 251726Z 2518/2618 30006KT P6SM SKC
     FM252300 22005KT P6SM SKC
     FM261500 18013KT P6SM FEW250=

USA.gov is the U.S. government's official web portal to all federal, state and local government web resources and services.